sensor_id;sensor_type;location;lat;lon;timestamp;temperature;humidity
49379;DHT22;35254;47.990;-1.608;2023-02-19T00:02:24;15.70;65.70
49379;DHT22;35254;47.990;-1.608;2023-02-19T00:04:50;15.70;65.60
49379;DHT22;35254;47.990;-1.608;2023-02-19T00:07:15;15.70;65.70
49379;DHT22;35254;47.990;-1.608;2023-02-19T00:09:41;15.70;65.50
49379;DHT22;35254;47.990;-1.608;2023-02-19T00:12:06;15.70;65.60
49379;DHT22;35254;47.990;-1.608;2023-02-19T00:14:32;15.70;65.70
49379;DHT22;35254;47.990;-1.608;2023-02-19T00:16:58;15.70;65.70
49379;DHT22;35254;47.990;-1.608;2023-02-19T00:19:23;15.70;65.70
49379;DHT22;35254;47.990;-1.608;2023-02-19T00:21:52;15.70;65.60
49379;DHT22;35254;47.990;-1.608;2023-02-19T00:24:19;15.70;65.50
49379;DHT22;35254;47.990;-1.608;2023-02-19T00:26:45;15.70;65.60
49379;DHT22;35254;47.990;-1.608;2023-02-19T00:29:13;15.70;65.60
49379;DHT22;35254;47.990;-1.608;2023-02-19T00:31:39;15.60;65.70
49379;DHT22;35254;47.990;-1.608;2023-02-19T00:34:06;15.70;65.60
49379;DHT22;35254;47.990;-1.608;2023-02-19T00:36:33;15.70;65.60
49379;DHT22;35254;47.990;-1.608;2023-02-19T00:39:01;15.70;65.60
49379;DHT22;35254;47.990;-1.608;2023-02-19T00:41:26;15.70;65.60
49379;DHT22;35254;47.990;-1.608;2023-02-19T00:44:01;15.70;65.60
49379;DHT22;35254;47.990;-1.608;2023-02-19T00:46:32;15.70;65.70
49379;DHT22;35254;47.990;-1.608;2023-02-19T00:48:59;15.70;65.60
49379;DHT22;35254;47.990;-1.608;2023-02-19T00:51:27;15.70;65.60
49379;DHT22;35254;47.990;-1.608;2023-02-19T00:53:53;15.70;65.70
49379;DHT22;35254;47.990;-1.608;2023-02-19T00:56:20;15.70;65.60
49379;DHT22;35254;47.990;-1.608;2023-02-19T00:58:46;15.70;65.60
49379;DHT22;35254;47.990;-1.608;2023-02-19T01:01:12;15.70;65.60
49379;DHT22;35254;47.990;-1.608;2023-02-19T01:03:38;15.70;65.70
49379;DHT22;35254;47.990;-1.608;2023-02-19T01:06:06;15.70;65.70
49379;DHT22;35254;47.990;-1.608;2023-02-19T01:08:32;15.70;65.70
49379;DHT22;35254;47.990;-1.608;2023-02-19T01:10:59;15.70;65.70
49379;DHT22;35254;47.990;-1.608;2023-02-19T01:13:25;15.70;65.60
49379;DHT22;35254;47.990;-1.608;2023-02-19T01:15:52;15.70;65.60
49379;DHT22;35254;47.990;-1.608;2023-02-19T01:18:19;15.70;65.70
49379;DHT22;35254;47.990;-1.608;2023-02-19T01:20:45;15.70;65.70
49379;DHT22;35254;47.990;-1.608;2023-02-19T01:23:11;15.60;65.80
49379;DHT22;35254;47.990;-1.608;2023-02-19T01:25:41;15.60;65.70
49379;DHT22;35254;47.990;-1.608;2023-02-19T01:28:07;15.60;65.90
49379;DHT22;35254;47.990;-1.608;2023-02-19T01:30:34;15.60;65.80
49379;DHT22;35254;47.990;-1.608;2023-02-19T01:33:02;15.60;65.70
49379;DHT22;35254;47.990;-1.608;2023-02-19T01:35:28;15.70;65.80
49379;DHT22;35254;47.990;-1.608;2023-02-19T01:37:54;15.60;65.90
49379;DHT22;35254;47.990;-1.608;2023-02-19T01:40:19;15.60;65.90
49379;DHT22;35254;47.990;-1.608;2023-02-19T01:42:45;15.60;65.90
49379;DHT22;35254;47.990;-1.608;2023-02-19T01:48:08;15.60;65.90
49379;DHT22;35254;47.990;-1.608;2023-02-19T01:50:40;15.60;65.90
49379;DHT22;35254;47.990;-1.608;2023-02-19T01:53:10;15.60;65.90
49379;DHT22;35254;47.990;-1.608;2023-02-19T01:55:38;15.60;66.00
49379;DHT22;35254;47.990;-1.608;2023-02-19T01:58:04;15.60;66.00
49379;DHT22;35254;47.990;-1.608;2023-02-19T02:00:31;15.60;66.00
49379;DHT22;35254;47.990;-1.608;2023-02-19T02:02:57;15.60;66.00
49379;DHT22;35254;47.990;-1.608;2023-02-19T02:05:50;15.60;66.10
49379;DHT22;35254;47.990;-1.608;2023-02-19T02:08:17;15.60;66.00
49379;DHT22;35254;47.990;-1.608;2023-02-19T02:11:02;15.60;65.80
49379;DHT22;35254;47.990;-1.608;2023-02-19T02:13:29;15.60;65.90
49379;DHT22;35254;47.990;-1.608;2023-02-19T02:18:30;15.60;65.90
49379;DHT22;35254;47.990;-1.608;2023-02-19T02:32:14;15.60;65.50
49379;DHT22;35254;47.990;-1.608;2023-02-19T02:34:51;15.60;64.70
49379;DHT22;35254;47.990;-1.608;2023-02-19T02:37:18;15.60;64.20
49379;DHT22;35254;47.990;-1.608;2023-02-19T02:39:45;15.60;63.80
49379;DHT22;35254;47.990;-1.608;2023-02-19T02:42:11;15.60;63.40
49379;DHT22;35254;47.990;-1.608;2023-02-19T02:44:54;15.60;63.10
49379;DHT22;35254;47.990;-1.608;2023-02-19T02:47:53;15.60;62.90
49379;DHT22;35254;47.990;-1.608;2023-02-19T02:50:24;15.60;62.60
49379;DHT22;35254;47.990;-1.608;2023-02-19T02:52:56;15.60;62.40
49379;DHT22;35254;47.990;-1.608;2023-02-19T02:55:44;15.50;62.30
49379;DHT22;35254;47.990;-1.608;2023-02-19T02:58:11;15.50;62.30
49379;DHT22;35254;47.990;-1.608;2023-02-19T03:00:38;15.60;62.20
49379;DHT22;35254;47.990;-1.608;2023-02-19T03:03:26;15.60;62.10
49379;DHT22;35254;47.990;-1.608;2023-02-19T03:05:57;15.50;62.00
49379;DHT22;35254;47.990;-1.608;2023-02-19T03:08:36;15.60;62.00
49379;DHT22;35254;47.990;-1.608;2023-02-19T03:11:08;15.60;61.90
49379;DHT22;35254;47.990;-1.608;2023-02-19T03:16:45;15.60;61.90
49379;DHT22;35254;47.990;-1.608;2023-02-19T03:19:35;15.50;61.80
49379;DHT22;35254;47.990;-1.608;2023-02-19T03:22:11;15.50;61.60
49379;DHT22;35254;47.990;-1.608;2023-02-19T03:24:50;15.50;61.50
49379;DHT22;35254;47.990;-1.608;2023-02-19T03:27:37;15.50;61.50
49379;DHT22;35254;47.990;-1.608;2023-02-19T03:30:09;15.40;61.40
49379;DHT22;35254;47.990;-1.608;2023-02-19T03:32:42;15.40;61.40
49379;DHT22;35254;47.990;-1.608;2023-02-19T03:35:30;15.40;61.50
49379;DHT22;35254;47.990;-1.608;2023-02-19T03:41:03;15.40;61.30
49379;DHT22;35254;47.990;-1.608;2023-02-19T03:49:34;15.40;61.30
49379;DHT22;35254;47.990;-1.608;2023-02-19T03:57:20;15.40;61.30
49379;DHT22;35254;47.990;-1.608;2023-02-19T04:02:42;15.30;61.90
49379;DHT22;35254;47.990;-1.608;2023-02-19T04:05:20;15.30;62.50
49379;DHT22;35254;47.990;-1.608;2023-02-19T04:07:49;15.30;62.80
49379;DHT22;35254;47.990;-1.608;2023-02-19T04:10:16;15.30;63.00
49379;DHT22;35254;47.990;-1.608;2023-02-19T04:13:07;15.40;63.30
49379;DHT22;35254;47.990;-1.608;2023-02-19T04:15:33;15.40;63.40
49379;DHT22;35254;47.990;-1.608;2023-02-19T04:17:59;15.40;63.40
49379;DHT22;35254;47.990;-1.608;2023-02-19T04:20:28;15.40;63.60
49379;DHT22;35254;47.990;-1.608;2023-02-19T04:22:56;15.40;63.70
49379;DHT22;35254;47.990;-1.608;2023-02-19T04:25:23;15.40;63.90
49379;DHT22;35254;47.990;-1.608;2023-02-19T04:27:50;15.40;64.10
49379;DHT22;35254;47.990;-1.608;2023-02-19T04:30:16;15.40;64.10
49379;DHT22;35254;47.990;-1.608;2023-02-19T04:32:42;15.40;64.20
49379;DHT22;35254;47.990;-1.608;2023-02-19T04:35:07;15.50;64.30
49379;DHT22;35254;47.990;-1.608;2023-02-19T04:37:33;15.50;64.30
49379;DHT22;35254;47.990;-1.608;2023-02-19T04:39:58;15.40;64.40
49379;DHT22;35254;47.990;-1.608;2023-02-19T04:42:24;15.40;64.50
49379;DHT22;35254;47.990;-1.608;2023-02-19T04:44:50;15.40;64.60
49379;DHT22;35254;47.990;-1.608;2023-02-19T04:47:15;15.50;64.60
49379;DHT22;35254;47.990;-1.608;2023-02-19T04:49:42;15.40;64.70
49379;DHT22;35254;47.990;-1.608;2023-02-19T04:52:08;15.50;64.60
49379;DHT22;35254;47.990;-1.608;2023-02-19T04:54:34;15.40;64.70
49379;DHT22;35254;47.990;-1.608;2023-02-19T04:57:00;15.50;64.70
49379;DHT22;35254;47.990;-1.608;2023-02-19T04:59:25;15.50;64.80
49379;DHT22;35254;47.990;-1.608;2023-02-19T05:01:51;15.50;64.80
49379;DHT22;35254;47.990;-1.608;2023-02-19T05:04:17;15.50;64.90
49379;DHT22;35254;47.990;-1.608;2023-02-19T05:06:42;15.50;64.90
49379;DHT22;35254;47.990;-1.608;2023-02-19T05:09:08;15.50;64.90
49379;DHT22;35254;47.990;-1.608;2023-02-19T05:11:33;15.50;65.00
49379;DHT22;35254;47.990;-1.608;2023-02-19T05:13:59;15.50;65.00
49379;DHT22;35254;47.990;-1.608;2023-02-19T05:16:25;15.50;65.10
49379;DHT22;35254;47.990;-1.608;2023-02-19T05:18:51;15.50;65.00
49379;DHT22;35254;47.990;-1.608;2023-02-19T05:21:17;15.50;65.20
49379;DHT22;35254;47.990;-1.608;2023-02-19T05:23:43;15.50;65.20
49379;DHT22;35254;47.990;-1.608;2023-02-19T05:26:14;15.50;65.20
49379;DHT22;35254;47.990;-1.608;2023-02-19T05:28:48;15.50;65.20
49379;DHT22;35254;47.990;-1.608;2023-02-19T05:31:14;15.50;65.20
49379;DHT22;35254;47.990;-1.608;2023-02-19T05:33:40;15.50;65.30
49379;DHT22;35254;47.990;-1.608;2023-02-19T05:36:09;15.50;65.30
49379;DHT22;35254;47.990;-1.608;2023-02-19T05:38:36;15.50;65.30
49379;DHT22;35254;47.990;-1.608;2023-02-19T05:43:40;15.50;65.40
49379;DHT22;35254;47.990;-1.608;2023-02-19T05:46:07;15.50;65.30
49379;DHT22;35254;47.990;-1.608;2023-02-19T05:48:33;15.50;65.30
49379;DHT22;35254;47.990;-1.608;2023-02-19T05:51:07;15.50;65.20
49379;DHT22;35254;47.990;-1.608;2023-02-19T05:53:33;15.50;65.30
49379;DHT22;35254;47.990;-1.608;2023-02-19T05:55:59;15.50;65.30
49379;DHT22;35254;47.990;-1.608;2023-02-19T05:58:25;15.60;65.30
49379;DHT22;35254;47.990;-1.608;2023-02-19T06:00:52;15.50;65.30
49379;DHT22;35254;47.990;-1.608;2023-02-19T06:03:18;15.50;65.30
49379;DHT22;35254;47.990;-1.608;2023-02-19T06:05:44;15.50;65.30
49379;DHT22;35254;47.990;-1.608;2023-02-19T06:08:14;15.60;65.30
49379;DHT22;35254;47.990;-1.608;2023-02-19T06:10:40;15.60;65.20
49379;DHT22;35254;47.990;-1.608;2023-02-19T06:13:07;15.60;65.20
49379;DHT22;35254;47.990;-1.608;2023-02-19T06:15:33;15.60;65.30
49379;DHT22;35254;47.990;-1.608;2023-02-19T06:17:59;15.60;65.20
49379;DHT22;35254;47.990;-1.608;2023-02-19T06:20:25;15.60;65.20
49379;DHT22;35254;47.990;-1.608;2023-02-19T06:22:51;15.60;65.10
49379;DHT22;35254;47.990;-1.608;2023-02-19T06:25:17;15.60;65.20
49379;DHT22;35254;47.990;-1.608;2023-02-19T06:27:43;15.60;65.20
49379;DHT22;35254;47.990;-1.608;2023-02-19T06:30:09;15.60;65.20
49379;DHT22;35254;47.990;-1.608;2023-02-19T06:32:35;15.60;65.10
49379;DHT22;35254;47.990;-1.608;2023-02-19T06:35:02;15.60;65.20
49379;DHT22;35254;47.990;-1.608;2023-02-19T06:37:28;15.60;65.00
49379;DHT22;35254;47.990;-1.608;2023-02-19T06:39:53;15.50;65.10
49379;DHT22;35254;47.990;-1.608;2023-02-19T06:42:19;15.60;65.10
49379;DHT22;35254;47.990;-1.608;2023-02-19T06:44:45;15.60;65.00
49379;DHT22;35254;47.990;-1.608;2023-02-19T06:47:10;15.60;65.00
49379;DHT22;35254;47.990;-1.608;2023-02-19T06:49:38;15.60;64.80
49379;DHT22;35254;47.990;-1.608;2023-02-19T06:52:04;15.60;64.80
49379;DHT22;35254;47.990;-1.608;2023-02-19T06:54:30;15.60;64.70
49379;DHT22;35254;47.990;-1.608;2023-02-19T06:56:58;15.60;64.60
49379;DHT22;35254;47.990;-1.608;2023-02-19T06:59:24;15.60;64.50
49379;DHT22;35254;47.990;-1.608;2023-02-19T07:01:50;15.50;64.50
49379;DHT22;35254;47.990;-1.608;2023-02-19T07:04:16;15.50;64.50
49379;DHT22;35254;47.990;-1.608;2023-02-19T07:06:41;15.50;64.50
49379;DHT22;35254;47.990;-1.608;2023-02-19T07:09:08;15.60;64.50
49379;DHT22;35254;47.990;-1.608;2023-02-19T07:11:36;15.50;64.60
49379;DHT22;35254;47.990;-1.608;2023-02-19T07:14:04;15.60;64.40
49379;DHT22;35254;47.990;-1.608;2023-02-19T07:16:32;15.60;64.40
49379;DHT22;35254;47.990;-1.608;2023-02-19T07:18:59;15.60;64.30
49379;DHT22;35254;47.990;-1.608;2023-02-19T07:21:25;15.60;64.30
49379;DHT22;35254;47.990;-1.608;2023-02-19T07:23:51;15.60;64.20
49379;DHT22;35254;47.990;-1.608;2023-02-19T07:26:18;15.60;64.10
49379;DHT22;35254;47.990;-1.608;2023-02-19T07:28:45;15.60;64.00
49379;DHT22;35254;47.990;-1.608;2023-02-19T07:31:11;15.60;64.00
49379;DHT22;35254;47.990;-1.608;2023-02-19T07:33:37;15.60;64.00
49379;DHT22;35254;47.990;-1.608;2023-02-19T07:36:06;15.60;64.00
49379;DHT22;35254;47.990;-1.608;2023-02-19T07:38:32;15.60;63.90
49379;DHT22;35254;47.990;-1.608;2023-02-19T07:41:00;15.60;63.80
49379;DHT22;35254;47.990;-1.608;2023-02-19T07:43:28;15.60;63.80
49379;DHT22;35254;47.990;-1.608;2023-02-19T07:45:54;15.60;63.90
49379;DHT22;35254;47.990;-1.608;2023-02-19T07:48:20;15.70;63.90
49379;DHT22;35254;47.990;-1.608;2023-02-19T07:50:52;15.70;63.80
49379;DHT22;35254;47.990;-1.608;2023-02-19T07:53:19;15.60;63.80
49379;DHT22;35254;47.990;-1.608;2023-02-19T07:55:45;15.70;63.80
49379;DHT22;35254;47.990;-1.608;2023-02-19T07:58:10;15.70;63.80
49379;DHT22;35254;47.990;-1.608;2023-02-19T08:00:36;15.70;63.80
49379;DHT22;35254;47.990;-1.608;2023-02-19T08:03:02;15.70;63.80
49379;DHT22;35254;47.990;-1.608;2023-02-19T08:05:33;15.70;63.80
49379;DHT22;35254;47.990;-1.608;2023-02-19T08:07:59;15.70;63.70
49379;DHT22;35254;47.990;-1.608;2023-02-19T08:10:25;15.70;63.70
49379;DHT22;35254;47.990;-1.608;2023-02-19T08:13:14;15.70;63.70
49379;DHT22;35254;47.990;-1.608;2023-02-19T08:15:51;15.70;63.60
49379;DHT22;35254;47.990;-1.608;2023-02-19T08:18:20;15.70;63.70
49379;DHT22;35254;47.990;-1.608;2023-02-19T08:20:46;15.70;63.70
49379;DHT22;35254;47.990;-1.608;2023-02-19T08:23:12;15.70;63.60
49379;DHT22;35254;47.990;-1.608;2023-02-19T08:25:38;15.80;63.60
49379;DHT22;35254;47.990;-1.608;2023-02-19T08:28:05;15.70;63.60
49379;DHT22;35254;47.990;-1.608;2023-02-19T08:30:32;15.70;63.60
49379;DHT22;35254;47.990;-1.608;2023-02-19T08:32:59;15.70;63.60
49379;DHT22;35254;47.990;-1.608;2023-02-19T08:35:25;15.70;63.60
49379;DHT22;35254;47.990;-1.608;2023-02-19T08:37:54;15.70;63.50
49379;DHT22;35254;47.990;-1.608;2023-02-19T08:40:21;15.70;63.50
49379;DHT22;35254;47.990;-1.608;2023-02-19T08:42:46;15.70;63.50
49379;DHT22;35254;47.990;-1.608;2023-02-19T08:45:12;15.70;63.50
49379;DHT22;35254;47.990;-1.608;2023-02-19T08:47:38;15.70;63.50
49379;DHT22;35254;47.990;-1.608;2023-02-19T08:50:05;15.80;63.50
49379;DHT22;35254;47.990;-1.608;2023-02-19T08:52:31;15.80;63.50
49379;DHT22;35254;47.990;-1.608;2023-02-19T08:54:57;15.80;63.50
49379;DHT22;35254;47.990;-1.608;2023-02-19T08:57:23;15.80;63.50
49379;DHT22;35254;47.990;-1.608;2023-02-19T08:59:49;15.80;63.50
49379;DHT22;35254;47.990;-1.608;2023-02-19T09:02:15;15.80;63.50
49379;DHT22;35254;47.990;-1.608;2023-02-19T09:04:41;15.80;63.50
49379;DHT22;35254;47.990;-1.608;2023-02-19T09:07:06;15.80;63.60
49379;DHT22;35254;47.990;-1.608;2023-02-19T09:09:36;15.80;63.50
49379;DHT22;35254;47.990;-1.608;2023-02-19T09:12:10;15.80;63.50
49379;DHT22;35254;47.990;-1.608;2023-02-19T09:14:36;15.80;63.50
49379;DHT22;35254;47.990;-1.608;2023-02-19T09:17:03;15.80;63.50
49379;DHT22;35254;47.990;-1.608;2023-02-19T09:19:29;15.80;63.50
49379;DHT22;35254;47.990;-1.608;2023-02-19T09:21:55;15.90;63.50
49379;DHT22;35254;47.990;-1.608;2023-02-19T09:24:21;15.90;63.40
49379;DHT22;35254;47.990;-1.608;2023-02-19T09:26:52;15.90;63.50
49379;DHT22;35254;47.990;-1.608;2023-02-19T09:29:18;15.90;63.60
49379;DHT22;35254;47.990;-1.608;2023-02-19T09:31:44;15.90;63.50
49379;DHT22;35254;47.990;-1.608;2023-02-19T09:34:10;15.90;63.30
49379;DHT22;35254;47.990;-1.608;2023-02-19T09:36:37;15.90;63.20
49379;DHT22;35254;47.990;-1.608;2023-02-19T09:39:03;15.90;63.50
49379;DHT22;35254;47.990;-1.608;2023-02-19T09:42:00;15.90;63.40
49379;DHT22;35254;47.990;-1.608;2023-02-19T09:44:36;15.90;63.40
49379;DHT22;35254;47.990;-1.608;2023-02-19T09:47:20;15.90;63.30
49379;DHT22;35254;47.990;-1.608;2023-02-19T09:49:47;16.00;63.40
49379;DHT22;35254;47.990;-1.608;2023-02-19T09:52:31;15.90;63.30
49379;DHT22;35254;47.990;-1.608;2023-02-19T09:55:01;15.90;63.30
49379;DHT22;35254;47.990;-1.608;2023-02-19T09:57:29;15.90;63.30
49379;DHT22;35254;47.990;-1.608;2023-02-19T10:02:51;16.00;63.50
49379;DHT22;35254;47.990;-1.608;2023-02-19T10:05:17;16.00;63.30
49379;DHT22;35254;47.990;-1.608;2023-02-19T10:07:45;16.00;63.40
49379;DHT22;35254;47.990;-1.608;2023-02-19T10:12:40;16.00;63.30
49379;DHT22;35254;47.990;-1.608;2023-02-19T10:15:18;16.00;63.20
49379;DHT22;35254;47.990;-1.608;2023-02-19T10:17:48;16.00;63.40
49379;DHT22;35254;47.990;-1.608;2023-02-19T10:20:19;16.00;63.30
49379;DHT22;35254;47.990;-1.608;2023-02-19T10:22:54;16.00;63.30
49379;DHT22;35254;47.990;-1.608;2023-02-19T10:25:22;16.00;63.30
49379;DHT22;35254;47.990;-1.608;2023-02-19T10:27:47;16.00;63.40
49379;DHT22;35254;47.990;-1.608;2023-02-19T10:30:20;16.00;63.40
49379;DHT22;35254;47.990;-1.608;2023-02-19T10:33:02;16.00;63.20
49379;DHT22;35254;47.990;-1.608;2023-02-19T10:35:28;16.00;63.40
49379;DHT22;35254;47.990;-1.608;2023-02-19T10:37:54;16.10;63.20
49379;DHT22;35254;47.990;-1.608;2023-02-19T10:40:23;16.00;63.30
49379;DHT22;35254;47.990;-1.608;2023-02-19T10:42:56;16.00;63.20
49379;DHT22;35254;47.990;-1.608;2023-02-19T10:45:46;16.00;63.30
49379;DHT22;35254;47.990;-1.608;2023-02-19T10:48:36;16.00;63.30
49379;DHT22;35254;47.990;-1.608;2023-02-19T10:51:06;16.00;63.20
49379;DHT22;35254;47.990;-1.608;2023-02-19T10:53:41;16.10;63.40
49379;DHT22;35254;47.990;-1.608;2023-02-19T10:56:21;16.00;63.20
49379;DHT22;35254;47.990;-1.608;2023-02-19T10:58:48;16.00;63.20
49379;DHT22;35254;47.990;-1.608;2023-02-19T11:01:20;16.00;63.20
49379;DHT22;35254;47.990;-1.608;2023-02-19T11:04:10;16.00;63.30
49379;DHT22;35254;47.990;-1.608;2023-02-19T11:06:35;16.10;63.30
49379;DHT22;35254;47.990;-1.608;2023-02-19T11:09:00;16.10;63.30
49379;DHT22;35254;47.990;-1.608;2023-02-19T11:11:30;16.10;63.40
49379;DHT22;35254;47.990;-1.608;2023-02-19T11:13:59;16.00;63.30
49379;DHT22;35254;47.990;-1.608;2023-02-19T11:16:44;16.10;63.30
49379;DHT22;35254;47.990;-1.608;2023-02-19T11:19:27;16.10;63.30
49379;DHT22;35254;47.990;-1.608;2023-02-19T11:21:53;16.10;63.30
49379;DHT22;35254;47.990;-1.608;2023-02-19T11:24:34;16.10;63.30
49379;DHT22;35254;47.990;-1.608;2023-02-19T11:27:05;16.10;63.30
49379;DHT22;35254;47.990;-1.608;2023-02-19T11:29:32;16.10;63.20
49379;DHT22;35254;47.990;-1.608;2023-02-19T11:34:45;16.10;63.20
49379;DHT22;35254;47.990;-1.608;2023-02-19T11:37:13;16.10;63.20
49379;DHT22;35254;47.990;-1.608;2023-02-19T11:39:45;16.10;63.10
49379;DHT22;35254;47.990;-1.608;2023-02-19T11:45:14;16.10;63.10
49379;DHT22;35254;47.990;-1.608;2023-02-19T11:50:32;16.10;63.00
49379;DHT22;35254;47.990;-1.608;2023-02-19T11:53:20;16.10;63.20
49379;DHT22;35254;47.990;-1.608;2023-02-19T12:06:30;16.10;63.20
49379;DHT22;35254;47.990;-1.608;2023-02-19T12:11:44;16.10;63.20
49379;DHT22;35254;47.990;-1.608;2023-02-19T12:20:00;16.20;63.20
49379;DHT22;35254;47.990;-1.608;2023-02-19T12:22:34;16.20;63.30
49379;DHT22;35254;47.990;-1.608;2023-02-19T12:25:28;16.20;63.20
49379;DHT22;35254;47.990;-1.608;2023-02-19T12:31:26;16.10;63.30
49379;DHT22;35254;47.990;-1.608;2023-02-19T12:36:49;16.10;63.10
49379;DHT22;35254;47.990;-1.608;2023-02-19T12:39:28;16.10;63.20
49379;DHT22;35254;47.990;-1.608;2023-02-19T12:47:59;16.20;63.20
49379;DHT22;35254;47.990;-1.608;2023-02-19T12:50:26;16.10;63.20
49379;DHT22;35254;47.990;-1.608;2023-02-19T12:53:04;16.20;63.20
49379;DHT22;35254;47.990;-1.608;2023-02-19T12:55:35;16.20;63.20
49379;DHT22;35254;47.990;-1.608;2023-02-19T12:58:04;16.20;63.10
49379;DHT22;35254;47.990;-1.608;2023-02-19T13:01:05;16.20;63.10
49379;DHT22;35254;47.990;-1.608;2023-02-19T13:03:39;16.10;63.20
49379;DHT22;35254;47.990;-1.608;2023-02-19T13:08:44;16.20;63.10
49379;DHT22;35254;47.990;-1.608;2023-02-19T13:11:16;16.20;63.10
49379;DHT22;35254;47.990;-1.608;2023-02-19T13:14:06;16.20;63.10
49379;DHT22;35254;47.990;-1.608;2023-02-19T13:16:38;16.20;63.10
49379;DHT22;35254;47.990;-1.608;2023-02-19T13:19:04;16.20;63.10
49379;DHT22;35254;47.990;-1.608;2023-02-19T13:21:32;16.10;63.20
49379;DHT22;35254;47.990;-1.608;2023-02-19T13:24:27;16.20;63.20
49379;DHT22;35254;47.990;-1.608;2023-02-19T13:37:50;16.20;63.40
49379;DHT22;35254;47.990;-1.608;2023-02-19T13:40:23;16.20;63.40
49379;DHT22;35254;47.990;-1.608;2023-02-19T13:42:53;16.20;63.40
49379;DHT22;35254;47.990;-1.608;2023-02-19T13:45:58;16.20;63.40
49379;DHT22;35254;47.990;-1.608;2023-02-19T14:14:52;16.20;63.40
49379;DHT22;35254;47.990;-1.608;2023-02-19T14:25:30;16.20;63.40
49379;DHT22;35254;47.990;-1.608;2023-02-19T14:30:30;16.20;63.30
49379;DHT22;35254;47.990;-1.608;2023-02-19T14:32:56;16.20;63.30
49379;DHT22;35254;47.990;-1.608;2023-02-19T14:35:28;16.20;63.30
49379;DHT22;35254;47.990;-1.608;2023-02-19T14:37:56;16.20;63.40
49379;DHT22;35254;47.990;-1.608;2023-02-19T14:40:27;16.20;63.40
49379;DHT22;35254;47.990;-1.608;2023-02-19T14:42:55;16.20;63.40
49379;DHT22;35254;47.990;-1.608;2023-02-19T14:45:21;16.20;63.40
49379;DHT22;35254;47.990;-1.608;2023-02-19T14:47:49;16.20;63.40
49379;DHT22;35254;47.990;-1.608;2023-02-19T14:50:28;16.20;63.40
49379;DHT22;35254;47.990;-1.608;2023-02-19T14:52:58;16.20;63.40
49379;DHT22;35254;47.990;-1.608;2023-02-19T14:57:59;16.20;63.50
49379;DHT22;35254;47.990;-1.608;2023-02-19T15:02:55;16.20;63.60
49379;DHT22;35254;47.990;-1.608;2023-02-19T15:05:35;16.20;63.60
49379;DHT22;35254;47.990;-1.608;2023-02-19T15:08:11;16.20;63.50
49379;DHT22;35254;47.990;-1.608;2023-02-19T15:10:41;16.20;63.60
49379;DHT22;35254;47.990;-1.608;2023-02-19T15:13:09;16.20;63.60
49379;DHT22;35254;47.990;-1.608;2023-02-19T15:15:41;16.20;63.50
49379;DHT22;35254;47.990;-1.608;2023-02-19T15:18:12;16.20;63.60
49379;DHT22;35254;47.990;-1.608;2023-02-19T15:20:40;16.20;63.50
49379;DHT22;35254;47.990;-1.608;2023-02-19T15:23:06;16.20;63.40
49379;DHT22;35254;47.990;-1.608;2023-02-19T15:25:35;16.20;63.40
49379;DHT22;35254;47.990;-1.608;2023-02-19T15:30:45;16.20;63.50
49379;DHT22;35254;47.990;-1.608;2023-02-19T15:33:18;16.20;63.50
49379;DHT22;35254;47.990;-1.608;2023-02-19T15:35:58;16.20;63.60
49379;DHT22;35254;47.990;-1.608;2023-02-19T15:38:24;16.20;63.50
49379;DHT22;35254;47.990;-1.608;2023-02-19T15:40:50;16.20;63.50
49379;DHT22;35254;47.990;-1.608;2023-02-19T15:43:27;16.20;63.60
49379;DHT22;35254;47.990;-1.608;2023-02-19T15:46:03;16.20;63.60
49379;DHT22;35254;47.990;-1.608;2023-02-19T15:48:42;16.20;63.70
49379;DHT22;35254;47.990;-1.608;2023-02-19T15:51:15;16.20;63.70
49379;DHT22;35254;47.990;-1.608;2023-02-19T15:53:49;16.20;63.60
49379;DHT22;35254;47.990;-1.608;2023-02-19T15:56:23;16.20;63.60
49379;DHT22;35254;47.990;-1.608;2023-02-19T15:59:23;16.20;63.60
49379;DHT22;35254;47.990;-1.608;2023-02-19T16:01:50;16.20;63.60
49379;DHT22;35254;47.990;-1.608;2023-02-19T16:04:17;16.20;63.50
49379;DHT22;35254;47.990;-1.608;2023-02-19T16:09:30;16.10;63.60
49379;DHT22;35254;47.990;-1.608;2023-02-19T16:11:58;16.20;63.50
49379;DHT22;35254;47.990;-1.608;2023-02-19T16:14:35;16.10;63.60
49379;DHT22;35254;47.990;-1.608;2023-02-19T16:19:47;16.10;63.70
49379;DHT22;35254;47.990;-1.608;2023-02-19T16:22:18;16.20;63.60
49379;DHT22;35254;47.990;-1.608;2023-02-19T16:24:56;16.10;63.70
49379;DHT22;35254;47.990;-1.608;2023-02-19T16:27:55;16.10;63.70
49379;DHT22;35254;47.990;-1.608;2023-02-19T16:30:30;16.10;63.70
49379;DHT22;35254;47.990;-1.608;2023-02-19T16:35:51;16.10;63.60
49379;DHT22;35254;47.990;-1.608;2023-02-19T16:38:18;16.10;63.50
49379;DHT22;35254;47.990;-1.608;2023-02-19T16:45:46;16.20;63.60
49379;DHT22;35254;47.990;-1.608;2023-02-19T16:48:12;16.10;63.60
49379;DHT22;35254;47.990;-1.608;2023-02-19T16:50:39;16.10;63.60
49379;DHT22;35254;47.990;-1.608;2023-02-19T16:53:06;16.10;63.60
49379;DHT22;35254;47.990;-1.608;2023-02-19T16:55:32;16.20;63.60
49379;DHT22;35254;47.990;-1.608;2023-02-19T16:57:59;16.20;63.60
49379;DHT22;35254;47.990;-1.608;2023-02-19T17:00:30;16.10;63.70
49379;DHT22;35254;47.990;-1.608;2023-02-19T17:03:00;16.10;63.70
49379;DHT22;35254;47.990;-1.608;2023-02-19T17:05:28;16.10;63.70
49379;DHT22;35254;47.990;-1.608;2023-02-19T17:07:55;16.10;63.80
49379;DHT22;35254;47.990;-1.608;2023-02-19T17:10:23;16.10;63.80
49379;DHT22;35254;47.990;-1.608;2023-02-19T17:12:50;16.10;63.80
49379;DHT22;35254;47.990;-1.608;2023-02-19T17:15:15;16.10;63.70
49379;DHT22;35254;47.990;-1.608;2023-02-19T17:17:41;16.10;63.80
49379;DHT22;35254;47.990;-1.608;2023-02-19T17:22:42;16.10;63.80
49379;DHT22;35254;47.990;-1.608;2023-02-19T17:25:07;16.10;63.80
49379;DHT22;35254;47.990;-1.608;2023-02-19T17:27:34;16.10;63.80
49379;DHT22;35254;47.990;-1.608;2023-02-19T17:29:59;16.10;63.90
49379;DHT22;35254;47.990;-1.608;2023-02-19T17:32:25;16.10;63.90
49379;DHT22;35254;47.990;-1.608;2023-02-19T17:34:51;16.10;63.80
49379;DHT22;35254;47.990;-1.608;2023-02-19T17:37:16;16.10;63.80
49379;DHT22;35254;47.990;-1.608;2023-02-19T17:39:42;16.10;63.80
49379;DHT22;35254;47.990;-1.608;2023-02-19T17:42:08;16.10;63.80
49379;DHT22;35254;47.990;-1.608;2023-02-19T17:44:33;16.10;63.70
49379;DHT22;35254;47.990;-1.608;2023-02-19T17:47:00;16.10;63.70
49379;DHT22;35254;47.990;-1.608;2023-02-19T17:49:25;16.10;63.70
49379;DHT22;35254;47.990;-1.608;2023-02-19T17:51:51;16.10;63.80
49379;DHT22;35254;47.990;-1.608;2023-02-19T17:54:17;16.10;63.70
49379;DHT22;35254;47.990;-1.608;2023-02-19T17:56:42;16.20;63.80
49379;DHT22;35254;47.990;-1.608;2023-02-19T17:59:10;16.20;63.80
49379;DHT22;35254;47.990;-1.608;2023-02-19T18:01:36;16.20;63.70
49379;DHT22;35254;47.990;-1.608;2023-02-19T18:04:02;16.10;63.80
49379;DHT22;35254;47.990;-1.608;2023-02-19T18:06:28;16.10;63.80
49379;DHT22;35254;47.990;-1.608;2023-02-19T18:08:54;16.10;63.80
49379;DHT22;35254;47.990;-1.608;2023-02-19T18:11:20;16.10;63.80